createdAt,value
2018-12-16T00:02:07.151Z,-2.00
2018-12-16T00:04:35.288Z,-1.90
2018-12-16T00:07:03.442Z,-1.80
2018-12-16T00:09:31.585Z,-1.90
2018-12-16T00:11:59.822Z,-1.90
2018-12-16T00:14:27.993Z,-1.90
2018-12-16T00:16:56.168Z,-1.90
2018-12-16T00:19:24.342Z,-1.90
2018-12-16T00:21:52.513Z,-2.00
2018-12-16T00:24:20.664Z,-2.00
2018-12-16T00:27:00.197Z,-1.90
2018-12-16T00:29:28.370Z,-1.90
2018-12-16T00:31:56.520Z,-1.90
2018-12-16T00:34:24.678Z,-1.90
2018-12-16T00:36:52.924Z,-1.90
2018-12-16T00:39:21.080Z,-1.90
2018-12-16T00:41:49.392Z,-1.80
2018-12-16T00:44:17.529Z,-1.80
2018-12-16T00:46:45.779Z,-1.80
2018-12-16T00:49:14.020Z,-1.80
2018-12-16T00:51:42.402Z,-1.80
2018-12-16T00:54:10.561Z,-1.90
2018-12-16T00:56:38.708Z,-1.80
2018-12-16T00:59:06.885Z,-1.90
2018-12-16T01:01:35.101Z,-1.90
2018-12-16T01:04:03.337Z,-1.90
2018-12-16T01:06:31.572Z,-1.90
2018-12-16T01:08:59.733Z,-1.90
2018-12-16T01:11:27.867Z,-1.90
2018-12-16T01:13:56.114Z,-1.90
2018-12-16T01:16:24.244Z,-1.90
2018-12-16T01:18:52.405Z,-1.80
2018-12-16T01:21:20.554Z,-1.70
2018-12-16T01:23:53.750Z,-1.60
2018-12-16T01:26:21.888Z,-1.70
2018-12-16T01:28:50.050Z,-1.80
2018-12-16T01:31:18.192Z,-1.80
2018-12-16T01:33:46.344Z,-1.80
2018-12-16T01:36:14.499Z,-1.70
2018-12-16T01:38:43.111Z,-1.80
2018-12-16T01:41:11.331Z,-1.80
2018-12-16T01:43:39.471Z,-1.70
2018-12-16T01:46:07.622Z,-1.70
2018-12-16T01:48:35.882Z,-1.70
2018-12-16T01:51:04.034Z,-1.70
2018-12-16T01:53:32.180Z,-1.70
2018-12-16T01:56:00.311Z,-1.70
2018-12-16T01:58:28.475Z,-1.80
2018-12-16T02:00:56.782Z,-1.70
2018-12-16T02:03:25.016Z,-1.90
2018-12-16T02:05:53.155Z,-1.90
2018-12-16T02:08:21.390Z,-1.80
2018-12-16T02:10:49.545Z,-1.90
2018-12-16T02:13:17.688Z,-2.00
2018-12-16T02:15:45.916Z,-2.00
2018-12-16T02:18:14.069Z,-2.00
2018-12-16T02:20:42.232Z,-1.90
2018-12-16T02:23:10.378Z,-1.90
2018-12-16T02:25:38.604Z,-1.90
2018-12-16T02:28:06.763Z,-1.90
2018-12-16T02:30:34.905Z,-1.90
2018-12-16T02:33:03.117Z,-2.00
2018-12-16T02:35:31.345Z,-1.80
2018-12-16T02:37:59.578Z,-1.90
2018-12-16T02:40:27.736Z,-1.90
2018-12-16T02:42:55.936Z,-1.90
2018-12-16T02:45:24.097Z,-2.00
2018-12-16T02:47:52.331Z,-2.00
2018-12-16T02:50:20.574Z,-2.00
2018-12-16T02:52:48.719Z,-2.00
2018-12-16T02:55:16.972Z,-2.00
2018-12-16T02:57:45.199Z,-2.00
2018-12-16T03:00:13.574Z,-2.00
2018-12-16T03:02:41.716Z,-1.90
2018-12-16T03:05:09.875Z,-1.90
2018-12-16T03:07:38.009Z,-2.00
2018-12-16T03:10:06.358Z,-2.00
2018-12-16T03:12:34.576Z,-2.00
2018-12-16T03:15:02.885Z,-2.00
2018-12-16T03:17:31.176Z,-2.00
2018-12-16T03:19:59.337Z,-2.00
2018-12-16T03:22:27.473Z,-2.00
2018-12-16T03:24:55.628Z,-2.00
2018-12-16T03:27:23.775Z,-2.00
2018-12-16T03:29:52.030Z,-1.90
2018-12-16T03:32:20.228Z,-1.90
2018-12-16T03:34:48.463Z,-1.80
2018-12-16T03:37:16.682Z,-1.80
2018-12-16T03:39:44.926Z,-1.90
2018-12-16T03:42:13.143Z,-1.90
2018-12-16T03:44:41.288Z,-1.80
2018-12-16T03:47:09.439Z,-1.80
2018-12-16T03:49:37.676Z,-1.90
2018-12-16T03:52:07.121Z,-1.90
2018-12-16T03:54:35.603Z,-1.90
2018-12-16T03:57:03.850Z,-1.90
2018-12-16T03:59:32.060Z,-1.80
2018-12-16T04:02:00.297Z,-1.80
2018-12-16T04:04:28.636Z,-1.70
2018-12-16T04:06:56.764Z,-1.80
2018-12-16T04:09:38.431Z,-1.80
2018-12-16T04:12:06.633Z,-1.80
2018-12-16T04:14:34.771Z,-1.80
2018-12-16T04:17:03.269Z,-1.80
2018-12-16T04:19:32.071Z,-1.80
2018-12-16T04:22:00.207Z,-1.90
2018-12-16T04:24:28.335Z,-1.90
2018-12-16T04:26:56.517Z,-2.10
2018-12-16T04:29:24.822Z,-2.20
2018-12-16T04:31:53.030Z,-2.10
2018-12-16T04:34:21.329Z,-2.10
2018-12-16T04:36:49.486Z,-2.10
2018-12-16T04:39:18.038Z,-2.20
2018-12-16T04:42:06.494Z,-2.20
2018-12-16T04:44:34.653Z,-2.20
2018-12-16T04:47:03.337Z,-2.20
2018-12-16T04:49:31.482Z,-2.10
2018-12-16T04:51:59.633Z,-2.10
2018-12-16T04:54:27.910Z,-2.10
2018-12-16T04:56:56.046Z,-2.20
2018-12-16T04:59:24.215Z,-2.20
2018-12-16T05:01:52.429Z,-2.30
2018-12-16T05:04:20.754Z,-2.30
2018-12-16T05:06:49.189Z,-2.30
2018-12-16T05:09:17.411Z,-2.20
2018-12-16T05:11:45.685Z,-2.20
2018-12-16T05:14:14.029Z,-2.20
2018-12-16T05:16:42.254Z,-2.20
2018-12-16T05:19:12.495Z,-2.10
2018-12-16T05:21:40.794Z,-2.10
2018-12-16T05:24:09.126Z,-2.00
2018-12-16T05:26:37.302Z,-2.00
2018-12-16T05:29:05.603Z,-2.00
2018-12-16T05:31:33.754Z,-2.00
2018-12-16T05:34:01.938Z,-2.00
2018-12-16T05:36:30.136Z,-2.00
2018-12-16T05:38:58.318Z,-2.10
2018-12-16T05:41:26.461Z,-2.20
2018-12-16T05:43:54.605Z,-2.20
2018-12-16T05:46:22.749Z,-2.20
2018-12-16T05:48:51.015Z,-2.10
2018-12-16T05:51:19.160Z,-2.10
2018-12-16T05:53:48.802Z,-2.10
2018-12-16T05:56:17.142Z,-2.10
2018-12-16T05:58:45.468Z,-2.20
2018-12-16T06:01:13.697Z,-2.20
2018-12-16T06:03:41.887Z,-2.20
2018-12-16T06:06:10.113Z,-2.20
2018-12-16T06:08:38.278Z,-2.10
2018-12-16T06:11:06.442Z,-2.20
2018-12-16T06:13:34.594Z,-2.30
2018-12-16T06:16:03.844Z,-2.20
2018-12-16T06:18:32.047Z,-2.20
2018-12-16T06:21:00.260Z,-2.20
2018-12-16T06:23:28.457Z,-2.30
2018-12-16T06:25:56.680Z,-2.30
2018-12-16T06:28:24.880Z,-2.40
2018-12-16T06:30:53.345Z,-2.40
2018-12-16T06:33:21.531Z,-2.50
2018-12-16T06:35:49.761Z,-2.50
2018-12-16T06:38:17.932Z,-2.40
2018-12-16T06:40:46.179Z,-2.50
2018-12-16T06:43:14.397Z,-2.50
2018-12-16T06:45:42.596Z,-2.50
2018-12-16T06:48:10.816Z,-2.40
2018-12-16T06:50:39.063Z,-2.40
2018-12-16T06:53:07.202Z,-2.40
2018-12-16T06:55:35.380Z,-2.50
2018-12-16T06:58:03.602Z,-2.50
2018-12-16T07:00:31.830Z,-2.50
2018-12-16T07:02:59.983Z,-2.50
2018-12-16T07:05:28.129Z,-2.50
2018-12-16T07:07:56.365Z,-2.50
2018-12-16T07:10:24.506Z,-2.40
2018-12-16T07:12:52.778Z,-2.30
2018-12-16T07:15:21.009Z,-2.30
2018-12-16T07:17:49.132Z,-2.20
2018-12-16T07:20:17.286Z,-2.20
2018-12-16T07:22:47.089Z,-2.10
2018-12-16T07:25:15.545Z,-2.20
2018-12-16T07:27:43.845Z,-2.20
2018-12-16T07:30:12.195Z,-2.10
2018-12-16T07:32:40.435Z,-2.10
2018-12-16T07:35:08.721Z,-2.10
2018-12-16T07:37:37.032Z,-2.10
2018-12-16T07:40:05.785Z,-2.10
2018-12-16T07:42:33.935Z,-2.10
2018-12-16T07:45:02.474Z,-2.10
2018-12-16T07:47:30.774Z,-2.10
2018-12-16T07:49:58.981Z,-2.10
2018-12-16T07:52:27.206Z,-2.10
2018-12-16T07:54:55.351Z,-2.00
2018-12-16T07:57:23.587Z,-2.00
2018-12-16T07:59:51.728Z,-1.90
2018-12-16T08:02:19.936Z,-1.90
2018-12-16T08:04:48.085Z,-1.90
2018-12-16T08:07:16.249Z,-1.90
2018-12-16T08:09:44.432Z,-1.90
2018-12-16T08:12:12.676Z,-1.80
2018-12-16T08:14:41.038Z,-1.90
2018-12-16T08:17:09.317Z,-1.80
2018-12-16T08:19:37.450Z,-1.80
2018-12-16T08:22:05.744Z,-1.80
2018-12-16T08:24:34.013Z,-1.90
2018-12-16T08:27:02.567Z,-1.90
2018-12-16T08:29:30.885Z,-1.80
2018-12-16T08:31:59.147Z,-1.70
2018-12-16T08:34:27.285Z,-1.70
2018-12-16T08:36:55.454Z,-1.80
2018-12-16T08:39:23.583Z,-1.70
2018-12-16T08:41:51.933Z,-1.60
2018-12-16T08:44:20.183Z,-1.50
2018-12-16T08:46:48.400Z,-1.60
2018-12-16T08:49:16.555Z,-1.60
2018-12-16T08:51:44.740Z,-1.50
2018-12-16T08:54:13.088Z,-1.40
2018-12-16T08:56:41.277Z,-1.40
2018-12-16T08:59:09.457Z,-1.40
2018-12-16T09:01:37.655Z,-1.30
2018-12-16T09:04:05.933Z,-1.30
2018-12-16T09:06:35.879Z,-1.30
2018-12-16T09:09:05.895Z,-1.30
2018-12-16T09:11:34.127Z,-1.30
2018-12-16T09:14:03.394Z,-1.30
2018-12-16T09:16:31.519Z,-1.20
2018-12-16T09:18:59.668Z,-1.10
2018-12-16T09:21:27.832Z,-1.10
2018-12-16T09:23:55.984Z,-1.00
2018-12-16T09:26:24.147Z,-1.00
2018-12-16T09:28:52.301Z,-1.00
2018-12-16T09:31:20.443Z,-1.10
2018-12-16T09:33:48.608Z,-1.10
2018-12-16T09:36:16.820Z,-1.10
2018-12-16T09:38:44.989Z,-1.10
2018-12-16T09:41:13.139Z,-1.10
2018-12-16T09:43:41.288Z,-1.00
2018-12-16T09:46:09.427Z,-1.00
2018-12-16T09:48:43.935Z,-0.90
2018-12-16T09:51:12.162Z,-0.80
2018-12-16T09:53:40.403Z,-0.70
2018-12-16T09:56:08.545Z,-0.70
2018-12-16T09:58:36.695Z,-0.60
2018-12-16T10:01:04.917Z,-0.60
2018-12-16T10:03:33.150Z,-0.60
2018-12-16T10:06:01.305Z,-0.60
2018-12-16T10:08:29.461Z,-0.50
2018-12-16T10:10:57.628Z,-0.50
2018-12-16T10:13:25.891Z,-0.50
2018-12-16T10:15:54.206Z,-0.50
2018-12-16T10:18:22.350Z,-0.40
2018-12-16T10:20:50.804Z,-0.70
2018-12-16T10:23:19.050Z,-0.60
2018-12-16T10:25:47.200Z,-0.60
2018-12-16T10:28:15.341Z,-0.50
2018-12-16T10:30:44.582Z,-0.60
2018-12-16T10:33:12.834Z,-0.60
2018-12-16T10:35:41.080Z,-0.50
2018-12-16T10:38:09.298Z,-0.50
2018-12-16T10:40:37.442Z,-0.40
2018-12-16T10:43:05.595Z,-0.60
2018-12-16T10:45:33.761Z,-0.60
2018-12-16T10:48:01.997Z,-0.60
2018-12-16T10:50:30.145Z,-0.60
2018-12-16T10:52:58.457Z,-0.50
2018-12-16T10:55:26.772Z,-0.50
2018-12-16T10:57:54.922Z,-0.40
2018-12-16T11:00:28.509Z,-0.20
2018-12-16T11:02:56.684Z,-0.20
2018-12-16T11:05:25.299Z,-0.10
2018-12-16T11:07:53.576Z,-0.20
2018-12-16T11:10:21.910Z,-0.20
2018-12-16T11:12:50.248Z,-0.20
2018-12-16T11:15:18.454Z,-0.10
2018-12-16T11:17:47.096Z,0.00
2018-12-16T11:20:15.475Z,0.00
2018-12-16T11:22:43.648Z,0.00
2018-12-16T11:25:14.538Z,-0.10
2018-12-16T11:27:42.693Z,0.00
2018-12-16T11:30:11.645Z,0.00
2018-12-16T11:32:39.884Z,0.00
2018-12-16T11:35:08.449Z,0.00
2018-12-16T11:37:36.586Z,0.10
2018-12-16T11:40:05.824Z,0.10
2018-12-16T11:42:34.046Z,0.10
2018-12-16T11:45:02.526Z,0.10
2018-12-16T11:47:30.776Z,0.10
2018-12-16T11:49:59.007Z,0.10
2018-12-16T11:52:27.548Z,0.00
2018-12-16T11:54:55.681Z,0.10
2018-12-16T11:57:23.906Z,0.20
2018-12-16T11:59:52.162Z,0.20
2018-12-16T12:02:20.310Z,0.20
2018-12-16T12:04:48.568Z,0.30
2018-12-16T12:07:16.788Z,0.30
2018-12-16T12:09:44.932Z,0.30
2018-12-16T12:12:13.084Z,0.40
2018-12-16T12:14:41.297Z,0.40
2018-12-16T12:17:09.448Z,0.50
2018-12-16T12:19:39.732Z,0.40
2018-12-16T12:22:08.516Z,0.40
2018-12-16T12:24:36.673Z,0.50
2018-12-16T12:27:04.973Z,0.50
2018-12-16T12:29:33.122Z,0.60
2018-12-16T12:32:01.917Z,0.60
2018-12-16T12:34:30.066Z,0.60
2018-12-16T12:36:58.266Z,0.70
2018-12-16T12:39:26.985Z,0.70
2018-12-16T12:41:55.186Z,0.80
2018-12-16T12:44:23.384Z,0.80
2018-12-16T12:46:51.618Z,0.80
2018-12-16T12:49:19.817Z,0.80
2018-12-16T12:51:48.039Z,0.80
2018-12-16T12:54:16.507Z,0.70
2018-12-16T12:56:44.720Z,0.70
2018-12-16T12:59:12.909Z,0.70
2018-12-16T13:01:41.091Z,0.70
2018-12-16T13:04:09.349Z,0.80
2018-12-16T13:06:37.491Z,0.80
2018-12-16T13:09:07.734Z,0.80
2018-12-16T13:11:35.931Z,0.80
2018-12-16T13:14:04.306Z,0.80
2018-12-16T13:16:32.606Z,0.80
2018-12-16T13:19:00.789Z,0.80
2018-12-16T13:21:28.961Z,0.80
2018-12-16T13:23:57.129Z,0.70
2018-12-16T13:26:25.379Z,0.70
2018-12-16T13:28:53.666Z,0.80
2018-12-16T13:31:21.896Z,0.80
2018-12-16T13:33:50.064Z,0.80
2018-12-16T13:36:18.413Z,0.70
2018-12-16T13:38:46.567Z,0.70
2018-12-16T13:41:14.787Z,0.70
2018-12-16T13:43:42.989Z,0.60
2018-12-16T13:46:11.238Z,0.60
2018-12-16T13:48:39.745Z,0.60
2018-12-16T13:51:07.914Z,0.70
2018-12-16T13:53:36.098Z,0.70
2018-12-16T13:56:04.333Z,0.70
2018-12-16T13:58:32.485Z,0.80
2018-12-16T14:01:00.644Z,0.90
2018-12-16T14:03:28.806Z,0.90
2018-12-16T14:05:57.044Z,0.90
2018-12-16T14:08:25.205Z,0.90
2018-12-16T14:10:53.460Z,0.80
2018-12-16T14:13:21.607Z,0.80
2018-12-16T14:15:52.522Z,0.90
2018-12-16T14:18:19.929Z,0.90
2018-12-16T14:20:48.144Z,0.90
2018-12-16T14:23:16.343Z,0.80
2018-12-16T14:25:47.926Z,0.80
2018-12-16T14:28:14.675Z,0.80
2018-12-16T14:30:42.946Z,0.80
2018-12-16T14:33:11.113Z,0.80
2018-12-16T14:35:39.413Z,0.70
2018-12-16T14:38:07.856Z,0.60
2018-12-16T14:40:36.022Z,0.50
2018-12-16T14:43:04.268Z,0.50
2018-12-16T14:45:32.453Z,0.50
2018-12-16T14:48:00.610Z,0.60
2018-12-16T14:50:28.790Z,0.60
2018-12-16T14:52:57.057Z,0.60
2018-12-16T14:55:25.293Z,0.60
2018-12-16T14:57:53.461Z,0.50
2018-12-16T15:00:21.719Z,0.50
2018-12-16T15:02:49.873Z,0.50
2018-12-16T15:05:18.039Z,0.50
2018-12-16T15:07:46.206Z,0.50
2018-12-16T15:10:14.382Z,0.60
2018-12-16T15:12:42.569Z,0.50
2018-12-16T15:15:10.926Z,0.60
2018-12-16T15:17:42.818Z,0.60
2018-12-16T15:20:09.418Z,0.50
2018-12-16T15:22:37.592Z,0.50
2018-12-16T15:25:06.185Z,0.60
2018-12-16T15:27:34.455Z,0.50
2018-12-16T15:30:03.126Z,0.60
2018-12-16T15:32:31.305Z,0.60
2018-12-16T15:34:59.476Z,0.60
2018-12-16T15:37:27.654Z,0.70
2018-12-16T15:39:55.837Z,0.70
2018-12-16T15:42:24.038Z,0.70
2018-12-16T15:44:52.212Z,0.70
2018-12-16T15:47:20.397Z,0.70
2018-12-16T15:49:48.556Z,0.60
2018-12-16T15:52:16.728Z,0.60
2018-12-16T15:54:44.916Z,0.60
2018-12-16T15:57:13.106Z,0.60
2018-12-16T15:59:41.365Z,0.60
2018-12-16T16:02:09.547Z,0.60
2018-12-16T16:04:37.697Z,0.70
2018-12-16T16:07:05.901Z,0.70
2018-12-16T16:09:34.077Z,0.80
2018-12-16T16:12:02.443Z,0.80
2018-12-16T16:14:30.625Z,0.80
2018-12-16T16:16:58.897Z,0.80
2018-12-16T16:19:27.077Z,0.70
2018-12-16T16:21:55.240Z,0.80
2018-12-16T16:24:23.490Z,0.70
2018-12-16T16:26:51.678Z,0.70
2018-12-16T16:29:19.912Z,0.70
2018-12-16T16:31:48.138Z,0.70
2018-12-16T16:34:16.317Z,0.70
2018-12-16T16:36:44.602Z,0.70
2018-12-16T16:39:12.814Z,0.70
2018-12-16T16:41:41.088Z,0.60
2018-12-16T16:44:09.279Z,0.60
2018-12-16T16:46:37.473Z,0.70
2018-12-16T16:49:06.526Z,0.70
2018-12-16T16:51:34.899Z,0.70
2018-12-16T16:54:03.179Z,0.80
2018-12-16T16:56:31.364Z,0.80
2018-12-16T16:58:59.556Z,0.80
2018-12-16T17:01:27.752Z,0.80
2018-12-16T17:03:55.983Z,0.90
2018-12-16T17:06:24.181Z,0.90
2018-12-16T17:08:52.371Z,0.90
2018-12-16T17:11:21.124Z,0.90
2018-12-16T17:13:49.778Z,0.90
2018-12-16T17:16:18.072Z,0.90
2018-12-16T17:18:46.443Z,1.00
2018-12-16T17:21:14.621Z,1.00
2018-12-16T17:23:42.831Z,0.90
2018-12-16T17:26:11.013Z,0.90
2018-12-16T17:28:39.299Z,0.80
2018-12-16T17:31:07.565Z,0.70
2018-12-16T17:33:35.728Z,0.70
2018-12-16T17:36:04.221Z,0.70
2018-12-16T17:41:07.013Z,0.60
2018-12-16T17:43:35.268Z,0.70
2018-12-16T17:46:03.421Z,0.70
2018-12-16T17:48:31.575Z,0.60
2018-12-16T17:50:59.759Z,0.50
2018-12-16T17:53:27.947Z,0.50
2018-12-16T17:55:56.496Z,0.60
2018-12-16T17:58:25.508Z,0.70
2018-12-16T18:00:53.670Z,0.70
2018-12-16T18:03:22.136Z,0.80
2018-12-16T18:05:50.290Z,0.80
2018-12-16T18:08:18.546Z,0.80
2018-12-16T18:10:46.717Z,0.80
2018-12-16T18:13:14.887Z,0.90
2018-12-16T18:15:43.188Z,0.90
2018-12-16T18:18:11.375Z,0.90
2018-12-16T18:20:39.646Z,0.90
2018-12-16T18:23:07.818Z,0.90
2018-12-16T18:25:36.010Z,0.90
2018-12-16T18:28:04.169Z,0.90
2018-12-16T18:30:32.381Z,0.80
2018-12-16T18:33:00.990Z,0.80
2018-12-16T18:35:29.124Z,0.80
2018-12-16T18:37:57.723Z,0.80
2018-12-16T18:40:25.970Z,0.80
2018-12-16T18:42:54.162Z,0.80
2018-12-16T18:45:22.410Z,0.90
2018-12-16T18:47:50.656Z,0.90
2018-12-16T18:50:18.973Z,0.80
2018-12-16T18:52:47.130Z,0.80
2018-12-16T18:55:15.278Z,0.90
2018-12-16T18:57:43.424Z,0.90
2018-12-16T19:00:12.200Z,0.90
2018-12-16T19:02:40.447Z,0.90
2018-12-16T19:05:08.584Z,0.90
2018-12-16T19:07:36.906Z,0.80
2018-12-16T19:10:06.036Z,0.90
2018-12-16T19:12:34.342Z,0.90
2018-12-16T19:15:02.684Z,1.00
2018-12-16T19:17:31.012Z,0.90
2018-12-16T19:19:59.184Z,0.90
2018-12-16T19:22:27.374Z,1.00
2018-12-16T19:24:55.512Z,0.90
2018-12-16T19:27:23.670Z,0.90
2018-12-16T19:29:51.819Z,0.90
2018-12-16T19:32:19.982Z,0.90
2018-12-16T19:34:48.130Z,0.90
2018-12-16T19:37:16.373Z,0.80
2018-12-16T19:39:44.561Z,0.90
2018-12-16T19:42:12.746Z,0.90
2018-12-16T19:44:40.919Z,0.90
2018-12-16T19:47:09.157Z,0.90
2018-12-16T19:49:37.398Z,0.90
2018-12-16T19:52:05.644Z,1.00
2018-12-16T19:54:34.243Z,0.90
2018-12-16T19:57:05.245Z,0.90
2018-12-16T19:59:32.676Z,0.80
2018-12-16T20:02:01.033Z,0.80
2018-12-16T20:04:34.547Z,0.80
2018-12-16T20:07:02.810Z,0.80
2018-12-16T20:09:30.993Z,0.80
2018-12-16T20:11:59.151Z,0.80
2018-12-16T20:14:27.323Z,0.80
2018-12-16T20:16:55.468Z,0.80
2018-12-16T20:19:23.658Z,0.80
2018-12-16T20:21:51.860Z,0.80
2018-12-16T20:24:20.030Z,0.80
2018-12-16T20:26:48.179Z,0.80
2018-12-16T20:29:16.341Z,0.70
2018-12-16T20:31:44.580Z,0.70
2018-12-16T20:34:12.898Z,0.70
2018-12-16T20:36:41.162Z,0.80
2018-12-16T20:39:09.400Z,0.80
2018-12-16T20:41:37.568Z,0.90
2018-12-16T20:44:05.736Z,0.90
2018-12-16T20:46:33.904Z,1.00
2018-12-16T20:49:02.057Z,1.00
2018-12-16T20:51:30.322Z,1.10
2018-12-16T20:53:58.469Z,1.10
2018-12-16T20:56:26.626Z,1.10
2018-12-16T20:58:54.864Z,1.00
2018-12-16T21:01:23.022Z,1.10
2018-12-16T21:03:51.214Z,1.00
2018-12-16T21:06:19.366Z,1.10
2018-12-16T21:08:47.520Z,1.00
2018-12-16T21:11:21.116Z,1.00
2018-12-16T21:13:54.510Z,1.10
2018-12-16T21:16:28.041Z,1.10
2018-12-16T21:18:56.333Z,1.10
2018-12-16T21:21:24.505Z,1.10
2018-12-16T21:23:52.814Z,1.20
2018-12-16T21:26:20.981Z,1.10
2018-12-16T21:28:49.169Z,1.10
2018-12-16T21:31:17.480Z,1.10
2018-12-16T21:33:45.636Z,1.10
2018-12-16T21:36:13.803Z,1.10
2018-12-16T21:38:41.969Z,1.10
2018-12-16T21:41:10.118Z,1.10
2018-12-16T21:43:38.276Z,1.10
2018-12-16T21:46:06.493Z,1.10
2018-12-16T21:48:34.719Z,1.10
2018-12-16T21:51:02.980Z,1.20
2018-12-16T21:53:31.129Z,1.20
2018-12-16T21:55:59.290Z,1.20
2018-12-16T21:58:27.434Z,1.30
2018-12-16T22:00:55.585Z,1.20
2018-12-16T22:03:23.725Z,1.30
2018-12-16T22:05:51.976Z,1.30
2018-12-16T22:08:20.129Z,1.30
2018-12-16T22:10:48.298Z,1.30
2018-12-16T22:13:16.462Z,1.30
2018-12-16T22:15:44.702Z,1.20
2018-12-16T22:18:12.966Z,1.20
2018-12-16T22:20:41.139Z,1.20
2018-12-16T22:23:09.307Z,1.20
2018-12-16T22:25:37.536Z,1.20
2018-12-16T22:28:05.687Z,1.20
2018-12-16T22:30:33.833Z,1.10
2018-12-16T22:33:01.984Z,1.10
2018-12-16T22:35:30.253Z,1.10
2018-12-16T22:37:58.412Z,1.10
2018-12-16T22:40:26.840Z,1.10
2018-12-16T22:42:54.975Z,1.10
2018-12-16T22:45:23.146Z,1.10
2018-12-16T22:47:51.296Z,1.00
2018-12-16T22:50:19.444Z,1.00
2018-12-16T22:52:47.620Z,1.10
2018-12-16T22:55:15.778Z,1.10
2018-12-16T22:57:47.082Z,1.10
2018-12-16T23:00:17.123Z,1.20
2018-12-16T23:02:45.448Z,1.20
2018-12-16T23:05:13.619Z,1.30
2018-12-16T23:07:41.781Z,1.20
2018-12-16T23:10:10.027Z,1.20
2018-12-16T23:12:38.213Z,1.20
2018-12-16T23:15:07.439Z,1.20
2018-12-16T23:17:35.667Z,1.20
2018-12-16T23:20:09.410Z,1.30
2018-12-16T23:22:37.553Z,1.30
2018-12-16T23:25:05.887Z,1.30
2018-12-16T23:27:34.119Z,1.30
2018-12-16T23:30:02.506Z,1.40
2018-12-16T23:32:30.665Z,1.40
2018-12-16T23:34:58.803Z,1.40
2018-12-16T23:37:26.956Z,1.40
2018-12-16T23:39:55.123Z,1.30
2018-12-16T23:42:23.326Z,1.30
2018-12-16T23:44:51.561Z,1.30
2018-12-16T23:47:19.712Z,1.30
2018-12-16T23:49:47.868Z,1.30
2018-12-16T23:52:16.108Z,1.30
2018-12-16T23:54:44.522Z,1.30
2018-12-16T23:57:12.760Z,1.30
2018-12-16T23:59:40.918Z,1.30
